createdAt,value
2023-02-02T00:02:20.736Z,4.28
2023-02-02T00:07:23.768Z,4.27
2023-02-02T00:12:27.440Z,4.25
2023-02-02T00:17:30.505Z,4.22
2023-02-02T00:22:34.199Z,4.20
2023-02-02T00:27:37.151Z,4.22
2023-02-02T00:32:40.851Z,4.21
2023-02-02T00:37:43.891Z,4.18
2023-02-02T00:42:50.528Z,4.11
2023-02-02T00:47:53.505Z,4.08
2023-02-02T00:52:58.156Z,4.07
2023-02-02T00:58:01.237Z,4.05
2023-02-02T01:03:04.718Z,4.00
2023-02-02T01:08:08.574Z,3.96
2023-02-02T01:19:27.282Z,3.92
2023-02-02T01:24:30.360Z,3.86
2023-02-02T01:29:33.413Z,3.87
2023-02-02T01:34:36.334Z,3.91
2023-02-02T01:39:39.468Z,3.89
2023-02-02T01:45:18.717Z,3.82
2023-02-02T01:50:26.797Z,3.81
2023-02-02T01:55:32.591Z,3.78
2023-02-02T02:00:36.387Z,3.75
2023-02-02T02:05:49.620Z,3.71
2023-02-02T02:10:52.807Z,3.70
2023-02-02T02:16:19.440Z,3.73
2023-02-02T02:21:52.395Z,3.76
2023-02-02T02:27:34.333Z,3.72
2023-02-02T02:33:04.070Z,3.71
2023-02-02T02:38:26.171Z,3.70
2023-02-02T02:43:40.432Z,3.68
2023-02-02T02:48:46.024Z,3.61
2023-02-02T02:53:48.948Z,3.58
2023-02-02T02:59:03.701Z,3.62
2023-02-02T03:04:12.469Z,3.59
2023-02-02T03:09:23.263Z,3.53
2023-02-02T03:14:26.236Z,3.53
2023-02-02T03:19:29.095Z,3.59
2023-02-02T03:24:31.916Z,3.60
2023-02-02T03:29:34.750Z,3.57
2023-02-02T03:34:37.562Z,3.55
2023-02-02T03:39:40.426Z,3.60
2023-02-02T03:44:43.215Z,3.64
2023-02-02T03:49:46.073Z,3.65
2023-02-02T03:54:48.916Z,3.63
2023-02-02T03:59:51.767Z,3.62
2023-02-02T04:04:54.594Z,3.62
2023-02-02T04:09:57.401Z,3.59
2023-02-02T04:15:00.229Z,3.57
2023-02-02T04:20:05.655Z,3.61
2023-02-02T04:25:08.905Z,3.63
2023-02-02T04:30:12.205Z,3.61
2023-02-02T04:35:15.189Z,3.62
2023-02-02T04:40:18.500Z,3.66
2023-02-02T04:45:21.369Z,3.70
2023-02-02T04:50:24.720Z,3.70
2023-02-02T04:55:27.586Z,3.71
2023-02-02T05:00:30.571Z,3.75
2023-02-02T05:05:33.518Z,3.76
2023-02-02T05:10:39.727Z,3.75
2023-02-02T05:15:43.114Z,3.76
2023-02-02T05:20:46.057Z,3.81
2023-02-02T05:25:53.853Z,3.83
2023-02-02T05:30:57.581Z,3.80
2023-02-02T05:36:00.616Z,3.77
2023-02-02T05:41:04.022Z,3.75
2023-02-02T05:46:07.090Z,3.80
2023-02-02T05:51:28.144Z,3.85
2023-02-02T05:56:31.042Z,3.88
2023-02-02T06:01:35.619Z,3.90
2023-02-02T06:06:39.159Z,3.94
2023-02-02T06:11:44.709Z,4.03
2023-02-02T06:16:47.551Z,4.09
2023-02-02T06:21:50.513Z,4.09
2023-02-02T06:26:53.360Z,4.05
2023-02-02T06:31:56.342Z,4.02
2023-02-02T06:36:59.198Z,4.06
2023-02-02T06:42:11.884Z,4.12
2023-02-02T06:47:23.675Z,4.17
2023-02-02T06:52:27.062Z,4.18
2023-02-02T06:57:29.995Z,4.16
2023-02-02T07:02:32.901Z,4.16
2023-02-02T07:07:35.983Z,4.19
2023-02-02T07:12:38.993Z,4.26
2023-02-02T07:17:41.855Z,4.30
2023-02-02T07:22:44.646Z,4.32
2023-02-02T07:27:47.990Z,4.33
2023-02-02T07:32:51.221Z,4.37
2023-02-02T07:37:56.073Z,4.42
2023-02-02T07:43:01.029Z,4.43
2023-02-02T07:48:04.067Z,4.39
2023-02-02T07:53:06.944Z,4.35
2023-02-02T07:58:11.519Z,4.35
2023-02-02T08:03:14.395Z,4.33
2023-02-02T08:08:17.247Z,4.30
2023-02-02T08:13:20.924Z,4.25
2023-02-02T08:18:23.798Z,4.22
2023-02-02T08:23:27.963Z,4.21
2023-02-02T08:28:30.745Z,4.20
2023-02-02T08:33:33.661Z,4.18
2023-02-02T08:38:36.484Z,4.21
2023-02-02T08:43:40.278Z,4.27
2023-02-02T08:48:43.859Z,4.30
2023-02-02T08:53:47.603Z,4.29
2023-02-02T08:58:54.581Z,4.32
2023-02-02T09:04:01.563Z,4.35
2023-02-02T09:09:09.008Z,4.32
2023-02-02T09:14:14.115Z,4.26
2023-02-02T09:19:17.295Z,4.21
2023-02-02T09:24:20.172Z,4.24
2023-02-02T09:29:23.039Z,4.19
2023-02-02T09:34:25.869Z,4.12
2023-02-02T09:39:28.819Z,4.11
2023-02-02T09:44:37.764Z,4.07
2023-02-02T09:50:18.620Z,4.02
2023-02-02T09:55:27.470Z,3.99
2023-02-02T10:00:51.278Z,4.02
2023-02-02T10:06:11.202Z,4.08
2023-02-02T10:11:46.627Z,4.10
2023-02-02T10:16:54.661Z,4.00
2023-02-02T10:22:27.726Z,3.92
2023-02-02T10:27:41.634Z,3.93
2023-02-02T10:33:10.288Z,3.95
2023-02-02T10:38:18.899Z,3.91
2023-02-02T10:43:46.513Z,3.82
2023-02-02T10:48:50.728Z,3.86
2023-02-02T10:53:57.366Z,3.89
2023-02-02T10:59:05.883Z,3.90
2023-02-02T11:04:29.502Z,3.92
2023-02-02T11:09:41.059Z,3.98
2023-02-02T11:14:52.440Z,3.97
2023-02-02T11:19:56.214Z,3.98
2023-02-02T11:25:08.334Z,3.95
2023-02-02T11:30:23.483Z,3.93
2023-02-02T11:35:29.873Z,3.85
2023-02-02T11:40:46.328Z,3.75
2023-02-02T11:46:02.853Z,3.72
2023-02-02T11:51:08.134Z,3.68
2023-02-02T11:56:23.964Z,3.69
2023-02-02T12:01:32.892Z,3.62
2023-02-02T12:06:38.233Z,3.61
2023-02-02T12:12:02.702Z,3.67
2023-02-02T12:17:50.241Z,3.66
2023-02-02T12:23:50.571Z,3.66
2023-02-02T12:29:11.653Z,3.61
2023-02-02T12:34:34.142Z,3.66
2023-02-02T12:40:03.180Z,3.68
2023-02-02T12:45:24.507Z,3.68
2023-02-02T12:50:39.568Z,3.72
2023-02-02T12:55:51.323Z,3.82
2023-02-02T13:01:25.361Z,3.81
2023-02-02T13:07:11.691Z,3.81
2023-02-02T13:12:18.743Z,3.81
2023-02-02T13:17:30.498Z,3.83
2023-02-02T13:22:44.554Z,3.85
2023-02-02T13:27:49.763Z,3.80
2023-02-02T13:32:57.240Z,3.85
2023-02-02T13:38:26.905Z,3.89
2023-02-02T13:44:06.720Z,3.85
2023-02-02T13:49:15.136Z,3.84
2023-02-02T13:54:44.890Z,3.88
2023-02-02T13:59:53.689Z,3.82
2023-02-02T14:04:59.946Z,3.76
2023-02-02T14:10:04.460Z,3.66
2023-02-02T14:15:10.038Z,3.63
2023-02-02T14:20:43.278Z,3.54
2023-02-02T14:25:46.124Z,3.38
2023-02-02T14:31:30.008Z,3.38
2023-02-02T14:36:37.089Z,3.34
2023-02-02T14:42:39.413Z,3.25
2023-02-02T14:47:45.205Z,3.12
2023-02-02T14:53:03.993Z,3.11
2023-02-02T14:58:07.686Z,3.11
2023-02-02T15:03:46.197Z,3.13
2023-02-02T15:09:27.312Z,3.20
2023-02-02T15:14:35.933Z,3.23
2023-02-02T15:19:45.185Z,3.27
2023-02-02T15:24:49.504Z,3.27
2023-02-02T15:30:02.935Z,3.27
2023-02-02T15:35:12.138Z,3.32
2023-02-02T15:40:20.600Z,3.37
2023-02-02T15:45:55.339Z,3.36
2023-02-02T15:51:05.108Z,3.39
2023-02-02T15:56:23.202Z,3.44
2023-02-02T16:01:30.458Z,3.51
2023-02-02T16:06:34.828Z,3.55
2023-02-02T16:11:42.197Z,3.54
2023-02-02T16:16:47.505Z,3.52
2023-02-02T16:22:04.587Z,3.53
2023-02-02T16:27:13.503Z,3.56
2023-02-02T16:32:40.275Z,3.63
2023-02-02T16:37:43.114Z,3.63
2023-02-02T16:42:45.957Z,3.66
2023-02-02T16:47:48.827Z,3.62
2023-02-02T16:53:02.939Z,3.44
2023-02-02T16:58:05.805Z,3.18
2023-02-02T17:03:12.397Z,3.12
2023-02-02T17:08:26.795Z,3.05
2023-02-02T17:13:32.634Z,3.00
2023-02-02T17:18:35.568Z,2.96
2023-02-02T17:23:39.361Z,2.90
2023-02-02T17:28:42.400Z,2.89
2023-02-02T17:33:45.284Z,2.85
2023-02-02T17:38:48.139Z,2.82
2023-02-02T17:43:50.929Z,2.80
2023-02-02T17:48:53.849Z,2.71
2023-02-02T17:53:59.953Z,2.63
2023-02-02T17:59:02.789Z,2.66
2023-02-02T18:04:06.246Z,2.61
2023-02-02T18:09:09.873Z,2.61
2023-02-02T18:14:13.163Z,2.58
2023-02-02T18:19:16.042Z,2.58
2023-02-02T18:24:18.822Z,2.61
2023-02-02T18:29:21.683Z,2.61
2023-02-02T18:34:25.013Z,2.64
2023-02-02T18:39:27.892Z,2.58
2023-02-02T18:44:31.713Z,2.60
2023-02-02T18:49:34.526Z,2.67
2023-02-02T18:54:37.370Z,2.80
2023-02-02T18:59:41.335Z,2.88
2023-02-02T19:05:03.622Z,2.86
2023-02-02T19:10:06.629Z,2.78
2023-02-02T19:15:13.294Z,2.75
2023-02-02T19:20:30.805Z,2.63
2023-02-02T19:25:33.790Z,2.54
2023-02-02T19:30:37.404Z,2.54
2023-02-02T19:35:40.827Z,2.53
2023-02-02T19:40:44.590Z,2.47
2023-02-02T19:45:47.383Z,2.53
2023-02-02T19:50:50.354Z,2.56
2023-02-02T19:55:53.343Z,2.60
2023-02-02T20:00:58.013Z,2.54
2023-02-02T20:06:04.941Z,2.45
2023-02-02T20:11:32.914Z,2.44
2023-02-02T20:16:44.971Z,2.44
2023-02-02T20:21:53.333Z,2.41
2023-02-02T20:27:03.171Z,2.55
2023-02-02T20:32:17.648Z,2.53
2023-02-02T20:37:31.533Z,2.46
2023-02-02T20:42:34.396Z,2.51
2023-02-02T20:47:37.255Z,2.58
2023-02-02T20:52:40.480Z,2.60
2023-02-02T20:57:43.372Z,2.59
2023-02-02T21:02:46.207Z,2.56
2023-02-02T21:07:54.549Z,2.55
2023-02-02T21:12:57.441Z,2.59
2023-02-02T21:18:00.252Z,2.58
2023-02-02T21:23:03.069Z,2.59
2023-02-02T21:28:06.044Z,2.56
2023-02-02T21:33:08.905Z,2.61
2023-02-02T21:38:15.223Z,2.61
2023-02-02T21:43:18.834Z,2.60
2023-02-02T21:48:29.648Z,2.55
2023-02-02T21:53:33.894Z,2.54
2023-02-02T21:58:40.321Z,2.53
2023-02-02T22:03:46.742Z,2.57
2023-02-02T22:08:51.171Z,2.51
2023-02-02T22:13:55.758Z,2.46
2023-02-02T22:18:58.686Z,2.47
2023-02-02T22:24:01.482Z,2.42
2023-02-02T22:29:17.613Z,2.32
2023-02-02T22:34:20.453Z,2.32
2023-02-02T22:39:23.306Z,2.35
2023-02-02T22:44:26.083Z,2.36
2023-02-02T22:49:28.871Z,2.29
2023-02-02T22:54:31.680Z,2.27
2023-02-02T22:59:35.046Z,2.27
2023-02-02T23:04:37.954Z,2.25
2023-02-02T23:09:40.928Z,2.24
2023-02-02T23:14:43.699Z,2.15
2023-02-02T23:19:46.491Z,2.09
2023-02-02T23:24:49.447Z,2.04
2023-02-02T23:29:52.603Z,2.04
2023-02-02T23:34:55.445Z,2.03
2023-02-02T23:39:58.318Z,1.97
2023-02-02T23:45:01.196Z,2.02
2023-02-02T23:50:07.622Z,2.09
2023-02-02T23:55:10.961Z,2.16
